createdAt,value
2023-04-08T00:02:25.395Z,20.46
2023-04-08T00:05:28.367Z,20.46
2023-04-08T00:08:31.681Z,20.46
2023-04-08T00:11:35.933Z,20.45
2023-04-08T00:14:38.832Z,20.46
2023-04-08T00:17:43.329Z,20.44
2023-04-08T00:20:46.488Z,20.45
2023-04-08T00:23:49.206Z,20.47
2023-04-08T00:26:53.316Z,20.48
2023-04-08T00:29:56.386Z,20.49
2023-04-08T00:32:59.274Z,20.50
2023-04-08T00:36:02.661Z,20.49
2023-04-08T00:39:06.863Z,20.48
2023-04-08T00:42:11.790Z,20.48
2023-04-08T00:45:14.719Z,20.47
2023-04-08T00:48:17.527Z,20.46
2023-04-08T00:51:20.462Z,20.45
2023-04-08T00:54:23.246Z,20.44
2023-04-08T00:57:27.529Z,20.44
2023-04-08T01:00:31.814Z,20.43
2023-04-08T01:03:40.585Z,20.44
2023-04-08T01:06:50.493Z,20.46
2023-04-08T01:09:56.473Z,20.46
2023-04-08T01:13:05.792Z,20.47
2023-04-08T01:16:12.130Z,20.47
2023-04-08T01:19:28.947Z,20.47
2023-04-08T01:22:40.561Z,20.46
2023-04-08T01:25:47.440Z,20.46
2023-04-08T01:28:52.118Z,20.45
2023-04-08T01:31:56.303Z,20.44
2023-04-08T01:35:00.300Z,20.44
2023-04-08T01:38:07.879Z,20.44
2023-04-08T01:41:12.645Z,20.43
2023-04-08T01:44:17.545Z,20.43
2023-04-08T01:47:20.725Z,20.43
2023-04-08T01:50:24.860Z,20.44
2023-04-08T01:53:27.713Z,20.44
2023-04-08T01:56:37.551Z,20.45
2023-04-08T01:59:42.121Z,20.47
2023-04-08T02:02:47.316Z,20.45
2023-04-08T02:05:50.767Z,20.45
2023-04-08T02:08:54.384Z,20.46
2023-04-08T02:11:58.972Z,20.45
2023-04-08T02:15:02.144Z,20.45
2023-04-08T02:18:12.518Z,20.44
2023-04-08T02:21:16.839Z,20.44
2023-04-08T02:24:21.167Z,20.44
2023-04-08T02:27:27.969Z,20.44
2023-04-08T02:30:32.371Z,20.44
2023-04-08T02:33:37.062Z,20.44
2023-04-08T02:36:41.070Z,20.44
2023-04-08T02:39:43.891Z,20.45
2023-04-08T02:42:48.938Z,20.47
2023-04-08T02:45:51.744Z,20.47
2023-04-08T02:48:54.916Z,20.47
2023-04-08T02:51:57.700Z,20.49
2023-04-08T02:55:00.624Z,20.48
2023-04-08T02:58:04.757Z,20.48
2023-04-08T03:01:10.051Z,20.48
2023-04-08T03:04:12.977Z,20.49
2023-04-08T03:07:15.735Z,20.50
2023-04-08T03:10:18.543Z,20.48
2023-04-08T03:13:22.785Z,20.49
2023-04-08T03:16:25.754Z,20.49
2023-04-08T03:19:28.590Z,20.49
2023-04-08T03:22:31.378Z,20.48
2023-04-08T03:25:34.208Z,20.49
2023-04-08T03:28:38.460Z,20.49
2023-04-08T03:31:41.530Z,20.48
2023-04-08T03:34:44.298Z,20.48
2023-04-08T03:37:47.190Z,20.48
2023-04-08T03:40:49.942Z,20.47
2023-04-08T03:43:54.031Z,20.47
2023-04-08T03:46:56.854Z,20.45
2023-04-08T03:49:59.619Z,20.46
2023-04-08T03:53:02.397Z,20.44
2023-04-08T03:56:05.474Z,20.44
2023-04-08T03:59:09.637Z,20.43
2023-04-08T04:02:12.503Z,20.42
2023-04-08T04:05:15.423Z,20.42
2023-04-08T04:08:18.385Z,20.42
2023-04-08T04:11:21.364Z,20.42
2023-04-08T04:14:25.738Z,20.42
2023-04-08T04:17:28.534Z,20.41
2023-04-08T04:20:31.431Z,20.41
2023-04-08T04:23:34.460Z,20.41
2023-04-08T04:26:37.233Z,20.40
2023-04-08T04:29:41.342Z,20.40
2023-04-08T04:32:44.273Z,20.40
2023-04-08T04:35:47.107Z,20.41
2023-04-08T04:38:50.921Z,20.40
2023-04-08T04:41:53.737Z,20.40
2023-04-08T04:44:58.856Z,20.42
2023-04-08T04:48:01.701Z,20.42
2023-04-08T04:51:04.639Z,20.42
2023-04-08T04:54:07.415Z,20.42
2023-04-08T04:57:11.032Z,20.43
2023-04-08T05:00:15.731Z,20.44
2023-04-08T05:03:18.672Z,20.43
2023-04-08T05:06:21.686Z,20.43
2023-04-08T05:09:24.428Z,20.43
2023-04-08T05:12:28.140Z,20.43
2023-04-08T05:15:33.548Z,20.43
2023-04-08T05:18:36.632Z,20.44
2023-04-08T05:21:39.401Z,20.42
2023-04-08T05:24:42.170Z,20.43
2023-04-08T05:27:44.917Z,20.44
2023-04-08T05:30:52.052Z,20.44
2023-04-08T05:33:54.985Z,20.44
2023-04-08T05:36:57.763Z,20.44
2023-04-08T05:40:00.602Z,20.44
2023-04-08T05:43:03.336Z,20.44
2023-04-08T05:46:11.598Z,20.43
2023-04-08T05:49:14.380Z,20.43
2023-04-08T05:52:17.525Z,20.43
2023-04-08T05:55:20.760Z,20.43
2023-04-08T05:58:23.491Z,20.43
2023-04-08T06:01:27.870Z,20.42
2023-04-08T06:04:30.741Z,20.43
2023-04-08T06:07:33.660Z,20.43
2023-04-08T06:10:36.439Z,20.43
2023-04-08T06:13:39.285Z,20.42
2023-04-08T06:16:43.562Z,20.43
2023-04-08T06:19:46.396Z,20.41
2023-04-08T06:22:49.176Z,20.42
2023-04-08T06:25:52.220Z,20.41
2023-04-08T06:28:55.001Z,20.41
2023-04-08T06:31:59.147Z,20.41
2023-04-08T06:35:01.950Z,20.41
2023-04-08T06:38:04.753Z,20.40
2023-04-08T06:41:08.142Z,20.40
2023-04-08T06:44:11.112Z,20.41
2023-04-08T06:47:16.498Z,20.41
2023-04-08T06:50:19.474Z,20.41
2023-04-08T06:53:23.748Z,20.41
2023-04-08T06:56:26.644Z,20.41
2023-04-08T06:59:30.443Z,20.42
2023-04-08T07:02:34.641Z,20.42
2023-04-08T07:05:38.585Z,20.42
2023-04-08T07:08:41.548Z,20.42
2023-04-08T07:11:44.297Z,20.42
2023-04-08T07:14:47.087Z,20.42
2023-04-08T07:17:51.685Z,20.42
2023-04-08T07:20:55.043Z,20.42
2023-04-08T07:23:57.821Z,20.42
2023-04-08T07:27:00.610Z,20.42
2023-04-08T07:30:03.435Z,20.42
2023-04-08T07:33:07.609Z,20.43
2023-04-08T07:36:11.476Z,20.43
2023-04-08T07:39:14.227Z,20.44
2023-04-08T07:42:16.971Z,20.43
2023-04-08T07:45:19.811Z,20.43
2023-04-08T07:48:24.004Z,20.44
2023-04-08T07:51:27.706Z,20.43
2023-04-08T07:54:34.188Z,20.42
2023-04-08T07:57:36.997Z,20.43
2023-04-08T08:00:40.836Z,20.42
2023-04-08T08:03:45.853Z,20.42
2023-04-08T08:06:48.857Z,20.42
2023-04-08T08:09:51.639Z,20.41
2023-04-08T08:12:54.435Z,20.42
2023-04-08T08:15:57.299Z,20.42
2023-04-08T08:19:01.723Z,20.42
2023-04-08T08:22:04.521Z,20.43
2023-04-08T08:25:09.926Z,20.43
2023-04-08T08:28:12.833Z,20.43
2023-04-08T08:31:15.739Z,20.43
2023-04-08T08:34:20.059Z,20.43
2023-04-08T08:37:22.891Z,20.44
2023-04-08T08:40:25.762Z,20.42
2023-04-08T08:43:30.088Z,20.42
2023-04-08T08:46:33.142Z,20.42
2023-04-08T08:49:37.424Z,20.42
2023-04-08T08:52:40.208Z,20.42
2023-04-08T08:58:49.211Z,20.42
2023-04-08T09:01:52.094Z,20.41
2023-04-08T09:05:01.195Z,20.42
2023-04-08T09:08:04.420Z,20.42
2023-04-08T09:11:14.998Z,20.42
2023-04-08T09:14:22.546Z,20.42
2023-04-08T09:17:36.220Z,20.42
2023-04-08T09:20:53.434Z,20.41
2023-04-08T09:24:06.565Z,20.42
2023-04-08T09:27:12.381Z,20.43
2023-04-08T09:30:15.535Z,20.43
2023-04-08T09:33:18.282Z,20.44
2023-04-08T09:36:22.518Z,20.46
2023-04-08T09:39:25.500Z,20.49
2023-04-08T09:42:28.606Z,20.50
2023-04-08T09:45:34.844Z,20.52
2023-04-08T09:48:42.759Z,20.55
2023-04-08T09:51:57.602Z,20.56
2023-04-08T09:55:03.848Z,20.58
2023-04-08T09:58:12.634Z,20.59
2023-04-08T10:01:16.381Z,20.60
2023-04-08T10:04:22.566Z,20.62
2023-04-08T10:07:27.259Z,20.63
2023-04-08T10:10:30.251Z,20.66
2023-04-08T10:13:34.829Z,20.68
2023-04-08T10:16:38.870Z,20.70
2023-04-08T10:19:42.073Z,20.71
2023-04-08T10:22:49.977Z,20.73
2023-04-08T10:25:52.778Z,20.74
2023-04-08T10:28:55.489Z,20.74
2023-04-08T10:31:58.487Z,20.74
2023-04-08T10:35:01.610Z,20.74
2023-04-08T10:38:05.811Z,20.74
2023-04-08T10:41:08.666Z,20.73
2023-04-08T10:44:18.038Z,20.74
2023-04-08T10:47:28.411Z,20.74
2023-04-08T10:50:32.323Z,20.71
2023-04-08T10:53:37.833Z,20.73
2023-04-08T10:56:46.483Z,20.72
2023-04-08T10:59:49.275Z,20.71
2023-04-08T11:02:52.150Z,20.71
2023-04-08T11:05:58.939Z,20.71
2023-04-08T11:09:04.201Z,20.71
2023-04-08T11:12:07.089Z,20.70
2023-04-08T11:15:11.116Z,20.70
2023-04-08T11:18:14.642Z,20.71
2023-04-08T11:21:18.382Z,20.70
2023-04-08T11:24:23.512Z,20.70
2023-04-08T11:27:27.083Z,20.71
2023-04-08T11:30:31.160Z,20.70
2023-04-08T11:33:35.058Z,20.70
2023-04-08T11:36:37.911Z,20.70
2023-04-08T11:39:44.078Z,20.69
2023-04-08T11:42:47.226Z,20.70
2023-04-08T11:45:50.316Z,20.70
2023-04-08T11:49:04.329Z,20.70
2023-04-08T11:52:07.524Z,20.71
2023-04-08T11:55:12.564Z,20.71
2023-04-08T11:58:15.860Z,20.71
2023-04-08T12:01:19.092Z,20.72
2023-04-08T12:04:22.040Z,20.72
2023-04-08T12:07:24.877Z,20.72
2023-04-08T12:10:29.126Z,20.73
2023-04-08T12:13:32.415Z,20.73
2023-04-08T12:16:35.390Z,20.75
2023-04-08T12:19:38.704Z,20.75
2023-04-08T12:22:41.703Z,20.76
2023-04-08T12:25:45.828Z,20.76
2023-04-08T12:28:48.558Z,20.77
2023-04-08T12:31:51.659Z,20.76
2023-04-08T12:34:54.598Z,20.76
2023-04-08T12:37:57.375Z,20.76
2023-04-08T12:41:01.547Z,20.74
2023-04-08T12:44:04.647Z,20.76
2023-04-08T12:47:07.471Z,20.75
2023-04-08T12:50:11.276Z,20.75
2023-04-08T12:53:14.099Z,20.74
2023-04-08T12:56:18.404Z,20.75
2023-04-08T12:59:21.173Z,20.74
2023-04-08T13:02:25.556Z,20.74
2023-04-08T13:05:41.906Z,20.73
2023-04-08T13:08:45.726Z,20.74
2023-04-08T13:11:50.316Z,20.73
2023-04-08T13:14:53.116Z,20.74
2023-04-08T13:17:56.184Z,20.73
2023-04-08T13:20:59.153Z,20.72
2023-04-08T13:24:02.238Z,20.72
2023-04-08T13:27:06.566Z,20.72
2023-04-08T13:30:10.587Z,20.73
2023-04-08T13:33:13.361Z,20.73
2023-04-08T13:36:16.124Z,20.73
2023-04-08T13:39:18.993Z,20.74
2023-04-08T13:42:23.461Z,20.73
2023-04-08T13:45:26.568Z,20.74
2023-04-08T13:48:29.307Z,20.75
2023-04-08T13:51:32.052Z,20.76
2023-04-08T13:54:34.836Z,20.75
2023-04-08T13:57:39.034Z,20.75
2023-04-08T14:00:41.838Z,20.74
2023-04-08T14:03:44.603Z,20.73
2023-04-08T14:06:47.402Z,20.73
2023-04-08T14:09:50.297Z,20.73
2023-04-08T14:12:54.455Z,20.73
2023-04-08T14:15:58.420Z,20.74
2023-04-08T14:19:01.296Z,20.74
2023-04-08T14:22:04.038Z,20.75
2023-04-08T14:25:07.138Z,20.75
2023-04-08T14:28:11.361Z,20.75
2023-04-08T14:31:14.170Z,20.76
2023-04-08T14:34:16.888Z,20.76
2023-04-08T14:37:19.624Z,20.76
2023-04-08T14:40:22.428Z,20.76
2023-04-08T14:43:26.676Z,20.76
2023-04-08T14:46:29.596Z,20.76
2023-04-08T14:49:32.347Z,20.78
2023-04-08T14:52:35.402Z,20.78
2023-04-08T14:55:38.532Z,20.79
2023-04-08T14:58:42.682Z,20.78
2023-04-08T15:01:45.888Z,20.79
2023-04-08T15:04:48.805Z,20.80
2023-04-08T15:07:51.711Z,20.79
2023-04-08T15:10:54.561Z,20.79
2023-04-08T15:13:58.735Z,20.79
2023-04-08T15:17:01.556Z,20.79
2023-04-08T15:20:04.681Z,20.78
2023-04-08T15:23:07.887Z,20.78
2023-04-08T15:26:11.345Z,20.77
2023-04-08T15:29:15.582Z,20.78
2023-04-08T15:32:18.493Z,20.78
2023-04-08T15:35:21.246Z,20.78
2023-04-08T15:38:24.083Z,20.80
2023-04-08T15:41:27.129Z,20.80
2023-04-08T15:44:33.466Z,20.80
2023-04-08T15:47:36.754Z,20.80
2023-04-08T15:50:39.835Z,20.80
2023-04-08T15:53:42.903Z,20.81
2023-04-08T15:56:46.616Z,20.80
2023-04-08T15:59:50.757Z,20.81
2023-04-08T16:02:53.687Z,20.79
2023-04-08T16:05:56.607Z,20.79
2023-04-08T16:08:59.316Z,20.79
2023-04-08T16:12:02.621Z,20.80
2023-04-08T16:15:08.411Z,20.79
2023-04-08T16:18:11.524Z,20.80
2023-04-08T16:21:14.514Z,20.81
2023-04-08T16:24:20.208Z,20.82
2023-04-08T16:27:23.316Z,20.80
2023-04-08T16:30:27.467Z,20.81
2023-04-08T16:33:30.857Z,20.81
2023-04-08T16:36:33.585Z,20.79
2023-04-08T16:39:36.527Z,20.81
2023-04-08T16:42:39.272Z,20.82
2023-04-08T16:45:43.458Z,20.81
2023-04-08T16:48:46.458Z,20.82
2023-04-08T16:51:49.466Z,20.81
2023-04-08T16:54:52.383Z,20.81
2023-04-08T16:57:55.419Z,20.80
2023-04-08T17:00:59.550Z,20.81
2023-04-08T17:04:02.447Z,20.82
2023-04-08T17:07:05.227Z,20.81
2023-04-08T17:10:09.098Z,20.82
2023-04-08T17:13:14.687Z,20.82
2023-04-08T17:16:19.508Z,20.81
2023-04-08T17:19:22.282Z,20.81
2023-04-08T17:22:25.077Z,20.81
2023-04-08T17:25:27.820Z,20.81
2023-04-08T17:28:30.583Z,20.82
2023-04-08T17:31:34.749Z,20.80
2023-04-08T17:34:37.999Z,20.80
2023-04-08T17:37:40.945Z,20.80
2023-04-08T17:40:43.738Z,20.80
2023-04-08T17:43:46.596Z,20.81
2023-04-08T17:46:50.732Z,20.81
2023-04-08T17:49:56.054Z,20.82
2023-04-08T17:52:58.841Z,20.82
2023-04-08T17:56:01.873Z,20.81
2023-04-08T17:59:04.664Z,20.81
2023-04-08T18:02:08.921Z,20.79
2023-04-08T18:05:12.597Z,20.79
2023-04-08T18:08:15.401Z,20.80
2023-04-08T18:11:18.262Z,20.79
2023-04-08T18:14:21.045Z,20.82
2023-04-08T18:17:25.240Z,20.82
2023-04-08T18:20:28.714Z,20.84
2023-04-08T18:23:31.512Z,20.85
2023-04-08T18:26:34.275Z,20.85
2023-04-08T18:29:37.068Z,20.86
2023-04-08T18:32:41.203Z,20.86
2023-04-08T18:35:44.293Z,20.85
2023-04-08T18:38:48.603Z,20.84
2023-04-08T18:41:51.341Z,20.82
2023-04-08T18:44:54.060Z,20.82
2023-04-08T18:47:58.615Z,20.81
2023-04-08T18:51:02.029Z,20.81
2023-04-08T18:54:04.957Z,20.80
2023-04-08T18:57:07.906Z,20.81
2023-04-08T19:00:11.380Z,20.81
2023-04-08T19:03:15.744Z,20.80
2023-04-08T19:06:22.378Z,20.80
2023-04-08T19:09:25.136Z,20.80
2023-04-08T19:12:29.485Z,20.80
2023-04-08T19:15:32.228Z,20.81
2023-04-08T19:18:36.400Z,20.81
2023-04-08T19:21:39.177Z,20.80
2023-04-08T19:24:41.983Z,20.79
2023-04-08T19:27:45.939Z,20.80
2023-04-08T19:30:50.558Z,20.78
2023-04-08T19:33:55.280Z,20.78
2023-04-08T19:36:58.118Z,20.78
2023-04-08T19:40:01.087Z,20.79
2023-04-08T19:43:03.858Z,20.79
2023-04-08T19:46:06.793Z,20.80
2023-04-08T19:49:10.973Z,20.80
2023-04-08T19:52:13.752Z,20.78
2023-04-08T19:55:16.918Z,20.80
2023-04-08T19:58:19.731Z,20.79
2023-04-08T20:01:22.589Z,20.80
2023-04-08T20:04:26.909Z,20.81
2023-04-08T20:07:29.792Z,20.81
2023-04-08T20:10:32.553Z,20.79
2023-04-08T20:13:35.289Z,20.79
2023-04-08T20:16:38.072Z,20.79
2023-04-08T20:19:42.235Z,20.79
2023-04-08T20:22:46.381Z,20.80
2023-04-08T20:25:49.367Z,20.82
2023-04-08T20:28:52.288Z,20.81
2023-04-08T20:31:55.482Z,20.83
2023-04-08T20:35:00.686Z,20.81
2023-04-08T20:38:03.457Z,20.82
2023-04-08T20:41:06.480Z,20.81
2023-04-08T20:44:10.535Z,20.79
2023-04-08T20:47:14.175Z,20.80
2023-04-08T20:50:18.407Z,20.79
2023-04-08T20:53:23.619Z,20.78
2023-04-08T20:56:27.533Z,20.79
2023-04-08T20:59:30.337Z,20.77
2023-04-08T21:02:33.679Z,20.78
2023-04-08T21:05:39.257Z,20.79
2023-04-08T21:08:42.035Z,20.81
2023-04-08T21:11:45.050Z,20.81
2023-04-08T21:14:47.852Z,20.81
2023-04-08T21:17:50.743Z,20.82
2023-04-08T21:20:55.059Z,20.83
2023-04-08T21:23:57.863Z,20.82
2023-04-08T21:27:01.309Z,20.84
2023-04-08T21:30:04.746Z,20.85
2023-04-08T21:33:07.901Z,20.84
2023-04-08T21:36:12.156Z,20.84
2023-04-08T21:39:17.505Z,20.81
2023-04-08T21:42:22.746Z,20.85
2023-04-08T21:45:25.933Z,20.83
2023-04-08T21:48:28.757Z,20.81
2023-04-08T21:51:32.929Z,20.81
2023-04-08T21:54:35.755Z,20.84
2023-04-08T21:57:39.287Z,20.83
2023-04-08T22:00:42.048Z,20.82
2023-04-08T22:03:44.913Z,20.83
2023-04-08T22:06:49.783Z,20.84
2023-04-08T22:09:54.480Z,20.82
2023-04-08T22:12:57.396Z,20.80
2023-04-08T22:16:00.154Z,20.81
2023-04-08T22:19:02.937Z,20.82
2023-04-08T22:22:07.094Z,20.81
2023-04-08T22:25:10.567Z,20.80
2023-04-08T22:28:13.376Z,20.76
2023-04-08T22:31:16.296Z,20.75
2023-04-08T22:34:19.185Z,20.78
2023-04-08T22:37:23.334Z,20.80
2023-04-08T22:40:26.158Z,20.78
2023-04-08T22:43:28.990Z,20.78
2023-04-08T22:46:32.038Z,20.77
2023-04-08T22:49:35.483Z,20.78
2023-04-08T22:52:39.737Z,20.76
2023-04-08T22:55:42.505Z,20.74
2023-04-08T22:58:45.376Z,20.73
2023-04-08T23:01:48.259Z,20.75
2023-04-08T23:04:54.686Z,20.72
2023-04-08T23:07:58.826Z,20.72
2023-04-08T23:11:01.637Z,20.70
2023-04-08T23:14:04.450Z,20.75
2023-04-08T23:17:07.212Z,20.75
2023-04-08T23:20:10.576Z,20.75
2023-04-08T23:23:14.640Z,20.75
2023-04-08T23:26:20.889Z,20.75
2023-04-08T23:29:23.712Z,20.71
2023-04-08T23:32:27.475Z,20.72
2023-04-08T23:35:30.584Z,20.70
2023-04-08T23:38:34.862Z,20.70
2023-04-08T23:41:37.624Z,20.69
2023-04-08T23:44:40.429Z,20.68
2023-04-08T23:47:43.248Z,20.70
2023-04-08T23:50:46.066Z,20.72
2023-04-08T23:53:51.742Z,20.72
2023-04-08T23:56:54.469Z,20.73
2023-04-08T23:59:58.605Z,20.72
